Time;durP1;ratioP1;P1;durP2;ratioP2;P2;SDS_P1;SDS_P2;PMS_P1;PMS_P2;Temp;Humidity;BMP_temperature;BMP_pressure;BME280_temperature;BME280_humidity;BME280_pressure;Samples;Min_cycle;Max_cycle;Signal;HPM_P1;HPM_P2
2023/03/27 00:01:53;;;;;;;3.95;0.73;;;4.00;46.30;;;;;;5072939;28;20077;-70
2023/03/27 00:04:18;;;;;;;6.47;0.90;;;3.90;52.60;;;;;;5085304;28;20129;-70
2023/03/27 00:06:44;;;;;;;8.02;1.23;;;3.90;64.00;;;;;;5090834;28;20067;-71
2023/03/27 00:09:11;;;;;;;4.57;0.80;;;3.80;73.60;;;;;;5088432;28;20127;-70
2023/03/27 00:11:36;;;;;;;3.03;0.70;;;3.70;80.90;;;;;;5071193;28;20044;-70
2023/03/27 00:14:03;;;;;;;3.67;0.60;;;3.70;86.30;;;;;;5089191;28;20044;-71
2023/03/27 00:16:29;;;;;;;;;;;3.60;93.40;;;;;;5075082;28;20492;-70
2023/03/27 00:18:55;;;;;;;1.73;0.40;;;3.50;94.50;;;;;;5089623;28;20022;-71
2023/03/27 00:21:22;;;;;;;5.70;1.05;;;3.50;95.50;;;;;;5070673;28;20507;-71
2023/03/27 00:23:48;;;;;;;3.80;0.70;;;3.40;99.80;;;;;;5073871;28;20575;-71
2023/03/27 00:26:14;;;;;;;3.58;0.93;;;3.40;99.90;;;;;;5072521;28;20134;-71
2023/03/27 00:28:40;;;;;;;2.03;0.60;;;3.30;99.90;;;;;;5074503;28;20048;-71
2023/03/27 00:31:11;;;;;;;3.47;0.77;;;3.30;99.90;;;;;;5079024;28;20102;-71
2023/03/27 00:33:37;;;;;;;3.15;0.70;;;3.20;99.90;;;;;;5074796;28;20106;-71
2023/03/27 00:36:03;;;;;;;3.35;0.82;;;3.20;99.90;;;;;;5076800;28;20487;-71
2023/03/27 00:38:29;;;;;;;3.60;0.47;;;3.20;99.90;;;;;;5071553;28;20055;-72
2023/03/27 00:40:55;;;;;;;2.97;0.40;;;3.10;99.90;;;;;;5075135;28;20052;-71
2023/03/27 00:43:26;;;;;;;3.92;0.65;;;3.10;99.90;;;;;;5081517;28;20051;-71
2023/03/27 00:46:13;;;;;;;5.80;0.82;;;3.10;99.90;;;;;;5085344;28;20071;-71
2023/03/27 00:48:39;;;;;;;2.63;0.80;;;3.10;99.90;;;;;;5051967;28;20136;-71
2023/03/27 00:51:06;;;;;;;4.70;0.90;;;3.10;99.90;;;;;;5082941;28;20416;-71
2023/03/27 00:53:32;;;;;;;3.35;0.90;;;3.10;99.90;;;;;;5080325;28;20032;-71
2023/03/27 00:56:04;;;;;;;4.50;0.93;;;3.10;99.90;;;;;;5058686;28;20048;-71
2023/03/27 00:58:41;;;;;;;4.22;0.80;;;3.20;99.90;;;;;;5085584;28;20173;-71
2023/03/27 01:01:07;;;;;;;;;;;3.20;99.90;;;;;;5070453;28;20101;-71
2023/03/27 01:03:33;;;;;;;5.80;0.90;;;3.30;99.90;;;;;;5086146;28;19916;-71
2023/03/27 01:06:00;;;;;;;5.85;1.13;;;3.30;99.90;;;;;;5081950;28;20149;-70
2023/03/27 01:08:31;;;;;;;6.85;1.42;;;3.20;99.90;;;;;;5068275;28;20037;-71
2023/03/27 01:11:06;;;;;;;5.53;0.85;;;3.30;99.90;;;;;;5082308;28;20479;-71
2023/03/27 01:13:59;;;;;;;5.57;1.00;;;3.20;99.90;;;;;;5070760;28;20083;-70
2023/03/27 01:16:41;;;;;;;2.80;0.90;;;3.20;99.90;;;;;;5082468;28;20044;-70
2023/03/27 01:19:07;;;;;;;4.50;0.85;;;3.20;99.90;;;;;;5087704;28;20518;-71
2023/03/27 01:21:41;;;;;;;4.17;1.10;;;3.20;99.90;;;;;;5087918;28;20040;-71
2023/03/27 01:24:19;;;;;;;3.55;0.80;;;3.20;99.90;;;;;;5083163;28;20051;-71
2023/03/27 01:26:56;;;;;;;6.70;0.75;;;3.10;99.90;;;;;;5074074;28;20071;-71
2023/03/27 01:29:49;;;;;;;5.10;0.93;;;3.10;99.90;;;;;;5074077;28;20048;-71
2023/03/27 01:32:27;;;;;;;1.63;0.65;;;3.10;99.90;;;;;;5075763;28;20060;-71
2023/03/27 01:35:02;;;;;;;3.55;0.75;;;3.10;98.80;;;;;;5068032;28;20067;-71
2023/03/27 01:38:05;;;;;;;2.10;0.60;;;3.00;98.10;;;;;;5068461;28;20071;-71
2023/03/27 01:40:49;;;;;;;4.22;1.10;;;3.00;97.80;;;;;;5070357;28;20119;-70
2023/03/27 01:43:23;;;;;;;5.40;0.98;;;3.00;97.30;;;;;;5075886;28;20067;-71
2023/03/27 01:46:08;;;;;;;5.18;0.77;;;3.00;95.20;;;;;;5071168;28;20043;-70
2023/03/27 01:48:42;;;;;;;3.92;1.08;;;3.00;93.60;;;;;;5076364;28;20055;-70
2023/03/27 01:51:28;;;;;;;4.10;1.40;;;3.00;92.80;;;;;;5086851;28;20582;-70
2023/03/27 01:54:24;;;;;;;5.00;0.90;;;3.10;91.20;;;;;;5070087;28;20113;-71
2023/03/27 01:57:21;;;;;;;5.57;0.93;;;3.10;86.50;;;;;;5078254;28;20048;-69
2023/03/27 01:59:54;;;;;;;4.85;1.08;;;3.10;78.60;;;;;;5071958;28;20399;-69
2023/03/27 02:02:27;;;;;;;2.95;0.73;;;3.10;71.30;;;;;;5071519;28;20047;-69
2023/03/27 02:05:16;;;;;;;7.68;1.25;;;3.20;66.80;;;;;;5069436;28;20044;-69
2023/03/27 02:07:50;;;;;;;4.30;0.70;;;3.30;59.60;;;;;;5088538;28;20389;-69
2023/03/27 02:10:26;;;;;;;5.82;0.80;;;3.30;56.60;;;;;;5090134;28;20509;-70
2023/03/27 02:13:02;;;;;;;4.53;0.80;;;3.30;57.70;;;;;;5070066;28;20087;-70
2023/03/27 02:15:32;;;;;;;7.55;1.05;;;3.30;61.10;;;;;;5069912;28;20479;-70
2023/03/27 02:18:04;;;;;;;5.15;1.23;;;3.30;65.70;;;;;;5071256;28;20040;-69
2023/03/27 02:20:31;;;;;;;4.43;1.30;;;3.50;71.90;;;;;;5069085;28;20040;-70
2023/03/27 02:23:00;;;;;;;5.65;1.30;;;3.60;83.20;;;;;;5070231;28;20395;-70
2023/03/27 02:25:32;;;;;;;4.57;1.10;;;3.50;88.10;;;;;;5083775;28;20048;-70
2023/03/27 02:28:24;;;;;;;5.25;1.20;;;3.50;95.40;;;;;;5068233;28;20076;-70
2023/03/27 02:31:26;;;;;;;7.47;1.25;;;3.50;99.70;;;;;;5068915;28;20053;-70
2023/03/27 02:34:20;;;;;;;3.75;1.17;;;3.50;99.90;;;;;;5069101;28;20043;-70
2023/03/27 02:37:18;;;;;;;7.03;1.10;;;3.50;99.90;;;;;;5068875;28;20036;-70
2023/03/27 02:39:49;;;;;;;4.55;1.00;;;3.50;99.90;;;;;;5051851;28;20097;-69
2023/03/27 02:42:25;;;;;;;2.88;0.90;;;3.40;99.90;;;;;;5071430;28;20098;-70
2023/03/27 02:45:09;;;;;;;6.25;1.02;;;3.40;99.90;;;;;;5071938;28;20110;-70
2023/03/27 02:47:46;;;;;;;5.05;1.13;;;3.30;99.90;;;;;;5087296;28;20045;-70
2023/03/27 02:50:40;;;;;;;7.22;1.02;;;3.40;99.90;;;;;;5072210;28;20093;-70
2023/03/27 02:53:09;;;;;;;5.43;1.15;;;3.30;99.90;;;;;;5090637;28;20070;-69
2023/03/27 02:55:41;;;;;;;6.28;1.10;;;3.30;99.90;;;;;;5082053;28;20044;-70
2023/03/27 02:58:40;;;;;;;4.10;0.80;;;3.30;99.90;;;;;;5075713;28;20065;-70
2023/03/27 03:01:08;;;;;;;5.90;0.90;;;3.20;99.90;;;;;;5068920;28;20088;-70
2023/03/27 03:03:43;;;;;;;3.75;1.00;;;3.20;99.90;;;;;;5071431;28;20487;-70
2023/03/27 03:06:09;;;;;;;8.60;1.80;;;3.20;99.90;;;;;;5073727;28;20047;-70
2023/03/27 03:08:39;;;;;;;2.75;0.80;;;3.20;99.90;;;;;;5074428;28;20086;-70
2023/03/27 03:11:11;;;;;;;5.97;1.10;;;3.10;99.90;;;;;;5071411;28;20479;-69
2023/03/27 03:13:37;;;;;;;4.18;1.00;;;3.10;99.90;;;;;;5081363;28;20371;-69
2023/03/27 03:16:03;;;;;;;3.30;0.90;;;3.10;99.90;;;;;;5078273;28;20047;-69
2023/03/27 03:18:29;;;;;;;5.03;1.27;;;3.10;99.90;;;;;;5074735;28;20054;-70
2023/03/27 03:20:55;;;;;;;5.35;1.35;;;3.00;99.90;;;;;;5074989;28;20135;-70
2023/03/27 03:23:21;;;;;;;6.10;1.55;;;3.00;99.90;;;;;;5078054;28;20163;-70
2023/03/27 03:25:49;;;;;;;;;;;3.00;99.90;;;;;;5074353;28;20551;-69
2023/03/27 03:28:17;;;;;;;5.60;1.20;;;3.10;99.90;;;;;;5076527;28;19924;-70
2023/03/27 03:30:46;;;;;;;5.80;1.30;;;3.20;99.90;;;;;;5071317;28;20388;-70
2023/03/27 03:33:13;;;;;;;3.92;1.13;;;3.10;99.90;;;;;;5068590;28;20403;-70
2023/03/27 03:35:39;;;;;;;4.13;0.93;;;3.10;99.90;;;;;;5091819;28;20054;-70
2023/03/27 03:38:05;;;;;;;;;;;3.10;97.60;;;;;;5082918;28;20051;-70
2023/03/27 03:40:31;;;;;;;5.18;1.27;;;3.00;94.50;;;;;;5074044;28;19916;-70
2023/03/27 03:42:57;;;;;;;6.15;1.00;;;3.00;91.10;;;;;;5072678;28;20059;-70
2023/03/27 03:45:23;;;;;;;2.72;1.20;;;3.00;88.10;;;;;;5080102;28;20047;-70
2023/03/27 03:47:49;;;;;;;2.47;1.02;;;2.90;83.10;;;;;;5081975;28;20047;-70
2023/03/27 03:50:15;;;;;;;3.25;1.15;;;2.90;77.00;;;;;;5078584;28;20048;-70
2023/03/27 03:52:41;;;;;;;3.40;1.05;;;2.90;73.10;;;;;;5059896;28;20510;-70
2023/03/27 03:55:09;;;;;;;3.78;1.00;;;2.80;68.40;;;;;;5070911;28;20041;-70
2023/03/27 03:57:35;;;;;;;3.03;0.82;;;2.80;64.30;;;;;;5072668;28;20067;-70
2023/03/27 04:00:10;;;;;;;3.97;1.08;;;2.80;59.70;;;;;;5070207;28;20484;-70
2023/03/27 04:02:35;;;;;;;3.40;0.90;;;2.70;59.80;;;;;;5062912;28;20493;-70
2023/03/27 04:05:01;;;;;;;5.43;1.10;;;2.70;52.50;;;;;;5053781;28;20266;-70
2023/03/27 04:07:34;;;;;;;5.72;1.27;;;2.80;41.80;;;;;;5074767;28;20133;-70
2023/03/27 04:10:01;;;;;;;8.60;1.95;;;2.90;30.40;;;;;;5091558;28;20040;-69
2023/03/27 04:12:27;;;;;;;3.97;1.00;;;2.80;28.70;;;;;;5089397;28;20052;-69
2023/03/27 04:14:53;;;;;;;5.43;1.50;;;2.80;30.70;;;;;;5071533;28;20052;-69
2023/03/27 04:17:19;;;;;;;;;;;2.90;43.50;;;;;;5079501;28;20299;-69
2023/03/27 04:19:45;;;;;;;5.13;1.40;;;2.90;52.90;;;;;;5071625;28;19924;-69
2023/03/27 04:22:16;;;;;;;5.70;1.30;;;2.90;56.90;;;;;;5078934;28;20407;-69
2023/03/27 04:24:43;;;;;;;4.82;1.23;;;3.00;78.00;;;;;;5073196;28;20160;-69
2023/03/27 04:27:09;;;;;;;7.30;1.58;;;3.10;89.60;;;;;;5079850;28;20048;-70
2023/03/27 04:29:35;;;;;;;7.50;2.05;;;3.10;92.10;;;;;;5053880;28;20044;-69
2023/03/27 04:32:01;;;;;;;6.20;1.63;;;3.20;92.80;;;;;;5082825;28;20039;-70
2023/03/27 04:34:27;;;;;;;7.65;1.13;;;3.30;86.90;;;;;;5058707;28;20036;-70
2023/03/27 04:36:53;;;;;;;7.53;1.20;;;3.30;77.90;;;;;;5074525;28;20484;-70
2023/03/27 04:39:19;;;;;;;3.38;1.13;;;3.50;59.70;;;;;;5083359;28;20649;-70
2023/03/27 04:41:48;;;;;;;5.00;1.50;;;3.50;48.50;;;;;;5080693;28;20036;-69
2023/03/27 04:44:16;;;;;;;4.93;0.98;;;3.50;38.10;;;;;;5078928;28;20095;-70
2023/03/27 04:46:43;;;;;;;4.80;1.10;;;3.70;45.80;;;;;;5071496;28;20036;-71
2023/03/27 04:49:09;;;;;;;7.97;1.05;;;3.70;68.90;;;;;;5073933;28;20484;-71
2023/03/27 04:51:35;;;;;;;5.72;0.70;;;3.60;94.40;;;;;;5070459;28;20071;-70
2023/03/27 04:54:03;;;;;;;4.45;0.80;;;3.60;99.90;;;;;;5052758;28;20106;-70
2023/03/27 04:56:30;;;;;;;4.60;0.77;;;3.50;99.90;;;;;;5078471;28;20102;-70
2023/03/27 04:58:55;;;;;;;4.72;0.50;;;3.50;99.90;;;;;;5085828;28;20376;-70
2023/03/27 05:01:21;;;;;;;3.92;0.50;;;3.50;99.90;;;;;;5072345;28;20047;-71
2023/03/27 05:03:48;;;;;;;2.28;0.55;;;3.40;99.90;;;;;;5074810;28;20048;-71
2023/03/27 05:06:14;;;;;;;5.05;0.70;;;3.40;99.90;;;;;;5061155;28;20140;-69
2023/03/27 05:08:40;;;;;;;2.05;0.30;;;3.30;99.90;;;;;;5080552;28;20301;-70
2023/03/27 05:11:06;;;;;;;4.63;0.55;;;3.30;99.90;;;;;;5077799;28;20116;-70
2023/03/27 05:13:32;;;;;;;2.50;0.40;;;3.20;99.90;;;;;;5078991;28;20352;-70
2023/03/27 05:16:00;;;;;;;4.50;0.40;;;3.20;99.90;;;;;;5059183;28;20131;-70
2023/03/27 05:18:29;;;;;;;1.50;0.32;;;3.20;91.90;;;;;;5061351;28;20044;-71
2023/03/27 05:20:58;;;;;;;2.70;0.40;;;3.10;94.00;;;;;;5081533;28;20056;-70
2023/03/27 05:23:25;;;;;;;3.92;0.60;;;3.10;91.50;;;;;;5057116;28;20097;-71
2023/03/27 05:25:51;;;;;;;1.70;0.52;;;3.10;88.60;;;;;;5056305;28;20040;-71
2023/03/27 05:28:17;;;;;;;3.53;1.05;;;3.10;90.70;;;;;;5084534;28;20345;-71
2023/03/27 05:30:43;;;;;;;2.42;0.70;;;3.10;92.80;;;;;;5077197;28;20170;-69
2023/03/27 05:33:12;;;;;;;4.47;0.80;;;3.20;95.30;;;;;;5074399;28;20032;-71
2023/03/27 05:35:40;;;;;;;3.92;0.82;;;3.20;99.00;;;;;;5052724;28;20085;-70
2023/03/27 05:38:07;;;;;;;4.57;0.80;;;3.20;99.90;;;;;;5054658;28;20052;-70
2023/03/27 05:40:33;;;;;;;3.65;0.80;;;3.20;99.90;;;;;;5054093;28;20543;-70
2023/03/27 05:43:00;;;;;;;2.55;0.60;;;3.20;99.90;;;;;;5070835;28;20045;-70
2023/03/27 05:45:25;;;;;;;;;;;3.20;99.90;;;;;;5082097;28;20040;-70
2023/03/27 05:47:53;;;;;;;5.50;1.00;;;3.10;99.90;;;;;;5056812;28;19928;-70
2023/03/27 05:50:21;;;;;;;4.85;0.77;;;3.10;99.90;;;;;;5078366;28;20048;-70
2023/03/27 05:52:52;;;;;;;3.40;0.55;;;3.10;99.90;;;;;;5072535;28;20032;-70
2023/03/27 05:55:18;;;;;;;4.28;0.80;;;3.10;99.90;;;;;;5082576;28;20047;-70
2023/03/27 05:57:44;;;;;;;6.77;0.80;;;3.10;99.90;;;;;;5089451;28;20112;-70
2023/03/27 06:00:15;;;;;;;2.88;0.55;;;3.00;99.90;;;;;;5078589;28;20306;-70
2023/03/27 06:02:42;;;;;;;4.72;1.02;;;3.00;99.90;;;;;;5054820;28;20721;-71
2023/03/27 06:05:14;;;;;;;3.58;0.80;;;3.00;99.90;;;;;;5079371;28;20541;-71
2023/03/27 06:07:41;;;;;;;6.50;1.15;;;3.10;99.90;;;;;;5089547;28;20511;-70
2023/03/27 06:10:08;;;;;;;5.22;0.88;;;3.10;99.90;;;;;;5083719;28;20051;-70
2023/03/27 06:12:35;;;;;;;5.30;0.98;;;3.20;99.90;;;;;;5066888;28;20115;-70
2023/03/27 06:15:06;;;;;;;4.13;1.10;;;3.20;99.90;;;;;;5073313;28;20403;-71
2023/03/27 06:17:37;;;;;;;5.45;0.90;;;3.30;99.90;;;;;;5053854;28;20097;-71
2023/03/27 06:20:10;;;;;;;5.03;1.08;;;3.30;99.90;;;;;;5089899;28;20491;-71
2023/03/27 06:22:47;;;;;;;4.72;1.27;;;3.40;99.90;;;;;;5094592;28;20380;-71
2023/03/27 06:25:14;;;;;;;5.30;0.93;;;3.40;99.90;;;;;;5093057;28;20043;-70
2023/03/27 06:27:45;;;;;;;4.35;0.80;;;3.50;99.90;;;;;;5093853;28;20079;-70
2023/03/27 06:30:11;;;;;;;6.72;0.93;;;3.50;99.90;;;;;;5085526;28;20463;-70
2023/03/27 06:32:45;;;;;;;5.05;1.00;;;3.60;99.90;;;;;;5079801;28;20036;-71
2023/03/27 06:35:13;;;;;;;5.47;0.93;;;3.70;99.90;;;;;;5079415;28;20084;-70
2023/03/27 06:37:40;;;;;;;3.42;0.82;;;3.80;99.90;;;;;;5077694;28;20387;-71
2023/03/27 06:40:09;;;;;;;7.03;1.40;;;3.80;99.90;;;;;;5080778;28;20052;-70
2023/03/27 06:42:35;;;;;;;5.18;1.10;;;3.90;99.90;;;;;;5080518;28;20495;-70
2023/03/27 06:45:03;;;;;;;4.55;1.00;;;3.90;93.10;;;;;;5081546;28;20105;-71
2023/03/27 06:47:29;;;;;;;3.67;0.93;;;4.00;90.70;;;;;;5087932;28;20083;-70
2023/03/27 06:49:55;;;;;;;6.72;1.15;;;4.10;90.10;;;;;;5068159;28;20092;-70
2023/03/27 06:52:21;;;;;;;5.55;0.70;;;4.20;90.10;;;;;;5079557;28;20400;-70
2023/03/27 06:54:47;;;;;;;5.78;0.95;;;4.30;67.10;;;;;;5087455;28;20079;-71
2023/03/27 06:57:14;;;;;;;5.38;1.15;;;4.50;63.20;;;;;;5077102;28;20393;-71
2023/03/27 06:59:40;;;;;;;5.40;1.00;;;4.70;14.80;;;;;;5073786;28;20590;-71
2023/03/27 07:02:08;;;;;;;4.47;1.20;;;5.00;18.00;;;;;;5040262;28;20053;-70
2023/03/27 07:04:34;;;;;;;6.07;1.00;;;5.30;1.00;;;;;;5057836;28;20093;-70
2023/03/27 07:07:00;;;;;;;4.63;1.00;;;5.40;1.00;;;;;;5076820;28;20060;-72
2023/03/27 07:09:25;;;;;;;4.75;1.33;;;5.50;1.00;;;;;;5080843;28;20392;-72
2023/03/27 07:11:51;;;;;;;4.45;0.93;;;5.40;1.00;;;;;;5084056;28;20503;-70
2023/03/27 07:14:16;;;;;;;3.08;1.00;;;5.50;1.00;;;;;;5079618;28;20052;-69
2023/03/27 07:16:42;;;;;;;5.53;1.17;;;5.70;1.00;;;;;;5072627;28;20040;-69
2023/03/27 07:19:08;;;;;;;5.18;1.45;;;5.90;1.00;;;;;;5070377;28;20431;-69
2023/03/27 07:21:36;;;;;;;8.18;1.08;;;5.90;1.00;;;;;;5080466;28;20044;-69
2023/03/27 07:24:02;;;;;;;4.00;0.98;;;5.50;1.00;;;;;;5055066;28;20045;-70
2023/03/27 07:26:28;;;;;;;4.00;1.10;;;5.30;1.00;;;;;;5065941;28;20040;-70
2023/03/27 07:28:53;;;;;;;3.85;1.00;;;5.20;1.00;;;;;;5076345;28;20141;-70
2023/03/27 07:31:19;;;;;;;3.72;0.90;;;5.30;1.00;;;;;;5080909;28;20062;-70
2023/03/27 07:33:45;;;;;;;5.07;0.70;;;5.50;1.00;;;;;;5057226;28;20036;-71
2023/03/27 07:36:11;;;;;;;4.47;0.90;;;5.50;1.00;;;;;;5078992;28;20464;-70
2023/03/27 07:38:40;;;;;;;4.05;1.00;;;5.40;1.00;;;;;;5064709;28;20369;-70
2023/03/27 07:41:05;;;;;;;4.90;0.98;;;5.40;1.00;;;;;;5077499;28;20459;-70
2023/03/27 07:43:33;;;;;;;2.05;0.60;;;4.90;6.40;;;;;;5075062;28;20137;-70
2023/03/27 07:45:59;;;;;;;3.85;0.70;;;4.50;47.60;;;;;;5076840;28;20539;-71
2023/03/27 07:48:26;;;;;;;;;;;4.40;75.50;;;;;;5083684;28;20499;-69
2023/03/27 07:50:57;;;;;;;3.03;1.05;;;4.00;96.50;;;;;;5072518;28;19920;-69
2023/03/27 07:53:24;;;;;;;6.28;1.50;;;3.80;99.90;;;;;;5088647;28;20124;-69
2023/03/27 07:55:52;;;;;;;2.90;0.70;;;3.60;99.90;;;;;;5071727;28;20080;-69
2023/03/27 07:58:20;;;;;;;2.78;0.70;;;3.60;99.90;;;;;;5071393;28;20555;-69
2023/03/27 08:00:50;;;;;;;2.22;0.60;;;3.40;99.90;;;;;;5055876;28;20385;-69
2023/03/27 08:03:17;;;;;;;3.25;0.65;;;3.70;99.90;;;;;;5091769;28;20070;-70
2023/03/27 08:05:43;;;;;;;5.47;1.05;;;3.90;99.90;;;;;;5091418;28;20081;-69
2023/03/27 08:08:09;;;;;;;4.05;0.70;;;4.10;99.90;;;;;;5073825;28;20458;-70
2023/03/27 08:10:38;;;;;;;4.22;0.85;;;4.30;99.90;;;;;;5080418;28;20043;-69
2023/03/27 08:13:04;;;;;;;3.08;0.60;;;4.50;94.50;;;;;;5071792;28;20090;-69
2023/03/27 08:15:30;;;;;;;2.70;0.80;;;4.60;70.60;;;;;;5083619;28;20052;-69
2023/03/27 08:17:58;;;;;;;3.20;0.98;;;4.90;91.70;;;;;;5065076;28;20050;-69
2023/03/27 08:20:23;;;;;;;5.60;0.90;;;5.10;69.60;;;;;;5091455;28;20043;-69
2023/03/27 08:22:51;;;;;;;3.45;0.75;;;5.10;57.30;;;;;;5089429;28;20395;-69
2023/03/27 08:25:17;;;;;;;4.25;0.93;;;5.10;45.10;;;;;;5089892;28;20055;-70
2023/03/27 08:27:43;;;;;;;5.40;0.88;;;5.30;45.60;;;;;;5085859;28;20048;-70
2023/03/27 08:30:10;;;;;;;;;;;5.40;50.10;;;;;;5082114;28;20056;-69
2023/03/27 08:32:41;;;;;;;1.77;0.68;;;5.50;38.50;;;;;;5085343;28;19919;-70
2023/03/27 08:35:09;;;;;;;2.13;0.88;;;5.60;25.70;;;;;;5077970;28;20033;-70
2023/03/27 08:37:35;;;;;;;2.45;0.70;;;5.70;38.60;;;;;;5061997;28;20109;-70
2023/03/27 08:40:01;;;;;;;6.60;1.30;;;5.80;36.30;;;;;;5085283;28;20109;-70
2023/03/27 08:42:41;;;;;;;8.40;1.30;;;5.90;29.10;;;;;;5086592;28;20135;-70
2023/03/27 08:45:30;;;;;;;3.60;0.93;;;5.90;28.90;;;;;;5091071;28;20055;-70
2023/03/27 08:48:08;;;;;;;3.13;0.80;;;5.90;32.50;;;;;;5074624;28;20083;-70
2023/03/27 08:50:45;;;;;;;4.45;1.05;;;6.20;48.10;;;;;;5070586;28;20365;-70
2023/03/27 08:53:31;;;;;;;8.18;1.10;;;6.30;27.20;;;;;;5075553;28;20040;-70
2023/03/27 08:55:57;;;;;;;3.83;0.80;;;6.30;1.00;;;;;;5070815;28;20119;-69
2023/03/27 08:58:23;;;;;;;5.32;0.82;;;6.50;1.00;;;;;;5067075;28;20131;-70
2023/03/27 09:01:34;;;;;;;2.72;0.68;;;6.50;1.00;;;;;;5080590;28;20078;-70
2023/03/27 09:04:12;;;;;;;3.28;0.98;;;6.40;1.00;;;;;;5069028;28;20060;-70
2023/03/27 09:06:48;;;;;;;4.75;0.65;;;6.60;1.00;;;;;;5074155;28;20047;-70
2023/03/27 09:09:20;;;;;;;4.65;1.20;;;6.70;1.00;;;;;;5081326;28;20080;-69
2023/03/27 09:11:59;;;;;;;3.55;0.70;;;6.60;1.00;;;;;;5081101;28;20036;-69
2023/03/27 09:14:28;;;;;;;3.30;0.75;;;6.50;1.00;;;;;;5069362;28;20060;-70
2023/03/27 09:16:58;;;;;;;2.28;0.50;;;6.60;1.00;;;;;;5083265;28;20048;-69
2023/03/27 09:19:24;;;;;;;6.38;0.95;;;7.00;1.00;;;;;;5080926;28;20051;-70
2023/03/27 09:22:03;;;;;;;3.88;0.90;;;6.80;1.00;;;;;;5081321;28;20459;-69
2023/03/27 09:24:38;;;;;;;1.70;0.50;;;6.50;1.00;;;;;;5082597;28;20064;-70
2023/03/27 09:27:13;;;;;;;2.03;0.60;;;6.40;1.00;;;;;;5074839;28;20047;-70
2023/03/27 09:29:40;;;;;;;2.88;0.60;;;6.50;1.00;;;;;;5074839;28;20037;-70
2023/03/27 09:32:13;;;;;;;2.55;0.80;;;6.70;1.00;;;;;;5082630;28;20045;-69
2023/03/27 09:34:40;;;;;;;5.68;0.88;;;6.90;99.90;;;;;;5088789;28;20123;-69
2023/03/27 09:37:11;;;;;;;2.25;0.60;;;7.10;99.90;;;;;;5071551;28;20072;-70
2023/03/27 09:39:42;;;;;;;2.20;0.80;;;7.00;99.90;;;;;;5069603;28;20444;-70
2023/03/27 09:42:21;;;;;;;2.60;0.80;;;6.70;99.90;;;;;;5074922;28;20523;-69
2023/03/27 09:44:53;;;;;;;3.67;0.75;;;6.80;99.90;;;;;;5086612;28;20098;-69
2023/03/27 09:47:25;;;;;;;7.30;1.17;;;7.00;99.90;;;;;;5070369;28;20045;-69
2023/03/27 09:50:02;;;;;;;3.63;0.60;;;6.90;99.90;;;;;;5089830;28;20076;-69
2023/03/27 09:52:36;;;;;;;2.00;0.63;;;6.90;99.90;;;;;;5090890;28;20131;-70
2023/03/27 09:55:22;;;;;;;2.55;0.75;;;7.00;99.90;;;;;;5088929;28;20105;-70
2023/03/27 09:57:51;;;;;;;2.60;0.50;;;7.20;99.90;;;;;;5083480;28;20447;-70
2023/03/27 10:00:33;;;;;;;3.58;0.52;;;6.90;99.90;;;;;;5089759;28;20071;-70
2023/03/27 10:03:04;;;;;;;5.15;0.65;;;7.00;99.90;;;;;;5085858;28;20098;-69
2023/03/27 10:05:31;;;;;;;4.47;0.88;;;7.00;99.90;;;;;;5069830;28;20394;-69
2023/03/27 10:07:58;;;;;;;5.28;1.00;;;7.00;99.90;;;;;;5079591;28;20250;-69
2023/03/27 10:10:26;;;;;;;3.53;0.80;;;7.20;99.90;;;;;;5070772;28;20032;-69
2023/03/27 10:12:58;;;;;;;3.00;0.60;;;7.20;99.90;;;;;;5054764;28;20066;-69
2023/03/27 10:15:34;;;;;;;6.03;0.95;;;7.10;99.90;;;;;;5089743;28;20101;-69
2023/03/27 10:18:03;;;;;;;3.10;0.80;;;7.20;99.90;;;;;;5085756;28;20039;-70
2023/03/27 10:20:29;;;;;;;3.70;0.70;;;7.10;99.90;;;;;;5069633;28;20048;-70
2023/03/27 10:23:07;;;;;;;4.90;1.08;;;7.20;99.90;;;;;;5053213;28;20088;-70
2023/03/27 10:25:37;;;;;;;3.80;0.85;;;7.00;99.90;;;;;;5089471;28;20048;-70
2023/03/27 10:28:23;;;;;;;1.52;0.57;;;7.10;99.90;;;;;;5077373;28;20130;-69
2023/03/27 10:31:10;;;;;;;4.03;0.85;;;7.10;99.90;;;;;;5087571;28;20036;-69
2023/03/27 10:33:39;;;;;;;4.28;0.93;;;6.80;99.90;;;;;;5082556;28;20495;-69
2023/03/27 10:36:07;;;;;;;4.30;0.70;;;6.90;99.90;;;;;;5071289;28;20522;-69
2023/03/27 10:38:36;;;;;;;3.17;0.75;;;7.10;99.90;;;;;;5082045;28;20503;-69
2023/03/27 10:41:13;;;;;;;6.55;0.85;;;7.50;99.90;;;;;;5086304;28;20201;-70
2023/03/27 10:43:44;;;;;;;3.03;0.63;;;7.60;99.90;;;;;;5081043;28;20044;-70
2023/03/27 10:46:27;;;;;;;3.88;1.48;;;7.30;99.90;;;;;;5077884;28;20074;-70
2023/03/27 10:49:17;;;;;;;3.30;0.77;;;7.50;99.90;;;;;;5077599;28;20040;-71
2023/03/27 10:52:05;;;;;;;3.42;0.90;;;7.80;99.90;;;;;;5078160;28;20102;-70
2023/03/27 10:54:50;;;;;;;4.10;1.15;;;7.70;99.90;;;;;;5084222;28;20368;-70
2023/03/27 10:57:26;;;;;;;3.42;0.90;;;7.50;99.90;;;;;;5085485;28;20066;-70
2023/03/27 11:00:21;;;;;;;3.80;0.73;;;8.00;99.90;;;;;;5085402;28;20493;-69
2023/03/27 11:03:04;;;;;;;5.00;1.00;;;8.20;99.90;;;;;;5072025;28;20539;-70
2023/03/27 11:05:33;;;;;;;4.25;1.25;;;8.30;99.90;;;;;;5087815;28;20040;-70
2023/03/27 11:08:20;;;;;;;2.38;0.70;;;8.30;99.90;;;;;;5085689;28;20388;-70
2023/03/27 11:10:48;;;;;;;5.28;0.82;;;8.50;99.90;;;;;;5086439;28;20044;-69
2023/03/27 11:13:28;;;;;;;4.88;1.02;;;8.40;99.90;;;;;;5074886;28;20044;-69
2023/03/27 11:16:02;;;;;;;6.07;1.15;;;8.50;99.90;;;;;;5089716;28;20042;-69
2023/03/27 11:18:39;;;;;;;4.95;1.00;;;8.70;99.90;;;;;;5082740;28;20467;-69
2023/03/27 11:21:13;;;;;;;;;;;8.60;99.90;;;;;;5089319;28;20086;-69
2023/03/27 11:23:43;;;;;;;5.53;0.93;;;7.30;99.90;;;;;;5060003;28;20000;-70
2023/03/27 11:26:14;;;;;;;4.50;0.95;;;5.60;1.00;;;;;;5079719;28;20040;-69
2023/03/27 11:29:08;;;;;;;2.20;0.70;;;4.40;1.00;;;;;;5082066;28;20498;-69
2023/03/27 11:31:44;;;;;;;3.22;0.60;;;3.70;75.90;;;;;;5072462;28;20040;-69
2023/03/27 11:34:24;;;;;;;5.03;0.90;;;3.50;51.40;;;;;;5077257;28;20043;-70
2023/03/27 11:37:13;;;;;;;5.75;1.10;;;3.60;72.10;;;;;;5071728;28;20118;-69
2023/03/27 11:40:22;;;;;;;5.75;1.08;;;4.00;99.90;;;;;;5083895;28;20142;-70
2023/03/27 11:42:49;;;;;;;2.55;0.90;;;5.00;99.90;;;;;;5086076;28;20036;-69
2023/03/27 11:45:19;;;;;;;5.43;0.98;;;5.90;99.90;;;;;;5077398;28;20043;-69
2023/03/27 11:48:07;;;;;;;5.57;0.85;;;6.40;16.70;;;;;;5089809;28;20040;-69
2023/03/27 11:50:32;;;;;;;4.28;0.70;;;6.80;1.00;;;;;;5072932;28;20434;-69
2023/03/27 11:53:26;;;;;;;6.50;1.00;;;7.20;1.00;;;;;;5081815;28;20101;-70
2023/03/27 11:56:23;;;;;;;5.13;1.13;;;7.50;1.00;;;;;;5071714;28;20278;-70
2023/03/27 11:59:04;;;;;;;5.32;0.82;;;7.30;1.00;;;;;;5077693;28;20044;-68
2023/03/27 12:01:55;;;;;;;3.85;1.10;;;6.90;99.90;;;;;;5081855;28;20050;-68
2023/03/27 12:04:36;;;;;;;3.13;0.82;;;7.10;99.90;;;;;;5081274;28;20048;-68
2023/03/27 12:07:22;;;;;;;4.07;0.82;;;7.40;99.90;;;;;;5054945;28;20121;-68
2023/03/27 12:10:03;;;;;;;4.63;0.85;;;7.80;99.90;;;;;;5077803;28;20028;-68
2023/03/27 12:12:53;;;;;;;6.60;1.35;;;8.10;99.90;;;;;;5085893;28;20036;-68
2023/03/27 12:15:55;;;;;;;5.00;0.90;;;8.30;99.90;;;;;;5083688;28;20043;-70
2023/03/27 12:18:39;;;;;;;4.55;1.00;;;8.60;99.90;;;;;;5051646;28;20487;-68
2023/03/27 12:21:24;;;;;;;5.05;0.85;;;8.20;99.90;;;;;;5076783;28;20086;-68
2023/03/27 12:24:11;;;;;;;5.00;0.90;;;7.90;99.90;;;;;;5086152;28;20491;-68
2023/03/27 12:26:55;;;;;;;6.57;1.13;;;7.40;99.90;;;;;;5084740;28;20048;-68
2023/03/27 12:29:50;;;;;;;5.20;0.82;;;7.10;99.90;;;;;;5075462;28;20488;-68
2023/03/27 12:32:45;;;;;;;4.75;0.80;;;7.40;99.90;;;;;;5088165;28;20032;-69
2023/03/27 12:35:18;;;;;;;3.90;0.80;;;7.60;99.90;;;;;;5076351;28;20067;-69
2023/03/27 12:37:55;;;;;;;3.97;0.90;;;7.60;99.90;;;;;;5084195;28;20517;-68
2023/03/27 12:40:31;;;;;;;5.57;1.23;;;7.60;99.90;;;;;;5078099;28;20048;-68
2023/03/27 12:43:16;;;;;;;7.88;1.20;;;7.50;99.90;;;;;;5078044;28;20052;-69
2023/03/27 12:46:02;;;;;;;3.58;1.10;;;7.00;99.90;;;;;;5088090;28;20145;-69
2023/03/27 12:48:28;;;;;;;4.43;0.80;;;7.40;99.90;;;;;;5082425;28;20553;-68
2023/03/27 12:50:56;;;;;;;2.65;0.60;;;7.50;99.90;;;;;;5086645;28;20147;-69
2023/03/27 12:53:27;;;;;;;2.65;0.70;;;7.80;99.90;;;;;;5070708;28;20039;-68
2023/03/27 12:56:09;;;;;;;2.97;0.70;;;7.90;99.90;;;;;;5071615;28;20131;-68
2023/03/27 12:58:37;;;;;;;2.03;0.38;;;8.00;99.90;;;;;;5085846;28;20516;-70
2023/03/27 13:01:08;;;;;;;6.75;1.00;;;8.30;99.90;;;;;;5085850;28;20133;-69
2023/03/27 13:03:53;;;;;;;5.85;0.80;;;8.20;99.90;;;;;;5088460;28;20127;-69
2023/03/27 13:06:34;;;;;;;6.35;1.27;;;8.10;99.90;;;;;;5071691;28;20051;-69
2023/03/27 13:09:07;;;;;;;4.97;1.30;;;8.00;99.90;;;;;;5072005;28;20119;-69
2023/03/27 13:11:57;;;;;;;4.85;1.00;;;7.80;99.90;;;;;;5071510;28;20047;-69
2023/03/27 13:14:49;;;;;;;8.43;1.40;;;8.00;99.90;;;;;;5086699;28;20040;-69
2023/03/27 13:17:24;;;;;;;6.30;1.10;;;8.00;99.90;;;;;;5086784;28;20502;-69
2023/03/27 13:20:08;;;;;;;4.70;1.20;;;8.00;99.90;;;;;;5084795;28;20086;-68
2023/03/27 13:22:49;;;;;;;6.55;1.00;;;7.80;99.90;;;;;;5086568;28;20036;-69
2023/03/27 13:25:17;;;;;;;5.80;1.13;;;7.90;99.90;;;;;;5082995;28;20062;-68
2023/03/27 13:28:07;;;;;;;6.55;1.35;;;6.90;1.00;;;;;;5080794;28;20075;-69
2023/03/27 13:30:52;;;;;;;3.33;0.70;;;5.40;8.30;;;;;;5067166;28;20044;-69